Time;durP1;ratioP1;P1;durP2;ratioP2;P2;SDS_P1;SDS_P2;PMS_P1;PMS_P2;Temp;Humidity;BMP_temperature;BMP_pressure;BME280_temperature;BME280_humidity;BME280_pressure;Samples;Min_cycle;Max_cycle;Signal;HPM_P1;HPM_P2
2022/08/28 00:01:46;;;;;;;33.50;20.05;;;;;;;16.91;100.00;98413.19;5083144;28;20021;-68
2022/08/28 00:04:12;;;;;;;32.75;20.67;;;;;;;16.83;100.00;98425.94;5083433;28;20028;-68
2022/08/28 00:06:37;;;;;;;38.85;22.23;;;;;;;16.78;100.00;98424.47;5083334;28;20024;-68
2022/08/28 00:09:03;;;;;;;29.85;19.55;;;;;;;16.78;100.00;98428.00;5082851;28;20090;-68
2022/08/28 00:11:29;;;;;;;38.50;20.00;;;;;;;16.75;100.00;98433.44;5083094;28;20035;-68
2022/08/28 00:13:54;;;;;;;32.65;20.30;;;;;;;16.87;100.00;98432.00;5083369;28;20028;-68
2022/08/28 00:16:20;;;;;;;35.90;20.05;;;;;;;16.93;100.00;98439.69;5083267;28;20066;-68
2022/08/28 00:18:46;;;;;;;29.40;19.02;;;;;;;16.90;100.00;98443.31;5082959;28;20024;-68
2022/08/28 00:21:12;;;;;;;36.30;20.40;;;;;;;16.86;100.00;98441.75;5083222;28;20024;-68
2022/08/28 00:23:37;;;;;;;33.58;21.75;;;;;;;16.72;100.00;98438.03;5084810;28;20047;-68
2022/08/28 00:26:03;;;;;;;36.88;20.48;;;;;;;16.64;100.00;98434.84;5086715;28;20028;-68
2022/08/28 00:28:31;;;;;;;33.58;20.50;;;;;;;16.60;100.00;98434.16;5086512;28;20029;-68
2022/08/28 00:30:57;;;;;;;30.92;19.70;;;;;;;16.64;100.00;98435.72;5086604;28;20042;-68
2022/08/28 00:33:32;;;;;;;40.13;20.50;;;;;;;16.73;100.00;98442.41;5086670;28;20024;-68
2022/08/28 00:35:59;;;;;;;33.78;19.85;;;;;;;16.71;100.00;98437.16;5086616;28;20029;-68
2022/08/28 00:38:26;;;;;;;33.15;19.85;;;;;;;16.72;100.00;98443.34;5086336;28;20028;-68
2022/08/28 00:40:55;;;;;;;30.70;19.50;;;;;;;16.71;100.00;98436.31;5078474;28;20327;-68
2022/08/28 00:43:37;;;;;;;26.40;17.23;;;;;;;16.77;100.00;98436.88;5086516;28;20025;-68
2022/08/28 00:46:06;;;;;;;25.85;18.00;;;;;;;16.92;100.00;98436.16;5086406;28;20032;-68
2022/08/28 00:48:32;;;;;;;29.42;19.02;;;;;;;16.96;100.00;98436.88;5086462;28;20089;-68
2022/08/28 00:53:42;;;;;;;34.47;20.33;;;;;;;16.97;100.00;98434.16;5086134;28;20120;-68
2022/08/28 00:56:11;;;;;;;33.10;19.17;;;;;;;17.04;100.00;98434.69;5086243;28;20327;-68
2022/08/28 00:58:38;;;;;;;25.52;18.13;;;;;;;17.00;100.00;98444.63;5086083;28;20342;-68
2022/08/28 01:01:04;;;;;;;31.30;17.58;;;;;;;16.96;100.00;98435.06;5086311;28;20024;-68
2022/08/28 01:03:29;;;;;;;28.17;18.92;;;;;;;17.08;100.00;98437.13;5085852;28;20242;-68
2022/08/28 01:05:56;;;;;;;26.27;19.52;;;;;;;17.05;100.00;98428.44;5085886;28;20316;-68
2022/08/28 01:08:21;;;;;;;26.08;18.40;;;;;;;17.10;100.00;98435.28;5085578;28;20052;-68
2022/08/28 01:10:51;;;;;;;31.77;20.48;;;;;;;17.08;100.00;98437.13;5085670;28;20258;-68
2022/08/28 01:13:17;;;;;;;31.83;19.25;;;;;;;17.14;100.00;98436.84;5085954;28;20020;-68
2022/08/28 01:15:44;;;;;;;29.65;19.40;;;;;;;17.18;100.00;98435.75;5085813;28;20085;-68
2022/08/28 01:18:14;;;;;;;35.90;20.98;;;;;;;17.16;100.00;98431.47;5085891;28;20024;-68
2022/08/28 01:20:51;;;;;;;34.00;20.10;;;;;;;17.13;100.00;98435.13;5085499;28;20184;-68
2022/08/28 01:23:25;;;;;;;31.05;20.50;;;;;;;17.11;100.00;98430.81;5085458;28;20028;-68
2022/08/28 01:25:51;;;;;;;33.83;20.20;;;;;;;17.12;100.00;98433.38;5085652;28;20070;-68
2022/08/28 01:28:17;;;;;;;33.72;18.33;;;;;;;17.15;100.00;98437.72;5085897;28;20248;-68
2022/08/28 01:30:45;;;;;;;29.45;19.23;;;;;;;17.16;100.00;98440.31;5085224;28;20096;-68
2022/08/28 01:33:13;;;;;;;24.73;17.88;;;;;;;17.20;100.00;98436.56;5085350;28;20231;-68
2022/08/28 01:35:42;;;;;;;29.08;18.25;;;;;;;17.22;100.00;98439.13;5085321;28;20057;-68
2022/08/28 01:38:08;;;;;;;25.30;16.98;;;;;;;17.27;100.00;98436.25;5085438;28;20091;-68
2022/08/28 01:40:37;;;;;;;25.83;17.42;;;;;;;17.28;100.00;98438.84;5085214;28;20032;-68
2022/08/28 01:43:12;;;;;;;29.95;17.42;;;;;;;17.28;100.00;98434.38;5085302;28;20024;-68
2022/08/28 01:45:43;;;;;;;26.73;16.75;;;;;;;17.35;100.00;98439.38;5085075;28;20328;-68
2022/08/28 01:48:09;;;;;;;30.73;17.30;;;;;;;17.42;100.00;98433.69;5085249;28;20056;-68
2022/08/28 01:50:34;;;;;;;25.35;15.57;;;;;;;17.44;100.00;98439.84;5084942;28;20091;-68
2022/08/28 01:53:01;;;;;;;25.52;15.07;;;;;;;17.50;100.00;98428.03;5085111;28;20083;-68
2022/08/28 01:55:27;;;;;;;25.00;15.98;;;;;;;17.55;99.52;98433.97;5085092;28;20223;-68
2022/08/28 01:57:54;;;;;;;25.15;15.57;;;;;;;17.56;99.20;98433.03;5084916;28;20028;-68
2022/08/28 02:00:24;;;;;;;21.17;14.88;;;;;;;17.64;98.98;98431.72;5084456;28;20349;-68
2022/08/28 02:02:50;;;;;;;26.75;16.23;;;;;;;17.61;98.87;98433.66;5084590;28;20103;-68
2022/08/28 02:05:15;;;;;;;25.85;15.73;;;;;;;17.59;98.47;98422.25;5084762;28;20024;-68
2022/08/28 02:07:41;;;;;;;20.88;15.35;;;;;;;17.56;98.83;98428.56;5084863;28;20028;-68
2022/08/28 02:10:09;;;;;;;29.70;15.88;;;;;;;17.55;98.79;98420.66;5084263;28;20040;-68
2022/08/28 02:12:35;;;;;;;23.67;15.88;;;;;;;17.48;99.09;98425.44;5084884;28;20091;-68
2022/08/28 02:15:00;;;;;;;29.80;15.35;;;;;;;17.44;99.27;98417.69;5084603;28;20058;-68
2022/08/28 02:17:26;;;;;;;23.77;14.48;;;;;;;17.44;99.26;98417.69;5084664;28;20024;-68
2022/08/28 02:19:51;;;;;;;27.88;14.18;;;;;;;17.39;99.34;98415.22;5084510;28;20021;-68
2022/08/28 02:22:17;;;;;;;21.85;13.88;;;;;;;17.32;99.63;98415.59;5084817;28;20196;-68
2022/08/28 02:24:42;;;;;;;21.98;13.85;;;;;;;17.30;99.87;98414.81;5084427;28;20051;-68
2022/08/28 02:27:08;;;;;;;23.48;14.40;;;;;;;17.28;99.64;98412.25;5084486;28;20103;-68
2022/08/28 02:29:34;;;;;;;23.08;13.15;;;;;;;17.30;99.89;98425.47;5084148;28;20130;-68
2022/08/28 02:31:59;;;;;;;24.45;13.07;;;;;;;17.20;99.51;98435.69;5084303;28;20036;-68
2022/08/28 02:34:24;;;;;;;24.25;14.82;;;;;;;17.12;100.00;98436.06;5084510;28;20028;-68
2022/08/28 02:36:50;;;;;;;22.48;14.15;;;;;;;17.14;100.00;98435.97;5084353;28;20021;-68
2022/08/28 02:39:15;;;;;;;21.38;12.93;;;;;;;17.23;100.00;98431.09;5083450;28;20248;-68
2022/08/28 02:41:41;;;;;;;21.10;13.02;;;;;;;17.30;99.77;98436.09;5084229;28;20023;-68
2022/08/28 02:44:06;;;;;;;21.27;13.75;;;;;;;17.32;98.99;98439.53;5084470;28;20044;-68
2022/08/28 02:46:32;;;;;;;24.15;13.82;;;;;;;17.22;98.79;98432.00;5083653;28;20016;-68
2022/08/28 02:48:57;;;;;;;20.58;13.90;;;;;;;17.13;98.82;98432.47;5084183;28;20027;-68
2022/08/28 02:51:23;;;;;;;19.27;12.80;;;;;;;17.02;99.36;98436.56;5084039;28;20035;-68
2022/08/28 02:53:49;;;;;;;31.95;14.55;;;;;;;16.86;99.95;98425.81;5084057;28;20036;-68
2022/08/28 02:56:15;;;;;;;22.08;13.07;;;;;;;16.77;100.00;98426.25;5084401;28;20056;-68
2022/08/28 02:58:41;;;;;;;25.02;14.30;;;;;;;16.78;100.00;98427.13;5084333;28;20020;-68
2022/08/28 03:01:09;;;;;;;22.45;13.35;;;;;;;16.81;100.00;98426.97;5083572;28;20013;-68
2022/08/28 03:03:35;;;;;;;23.05;13.70;;;;;;;16.73;100.00;98422.00;5084042;28;20304;-68
2022/08/28 03:06:02;;;;;;;26.48;14.07;;;;;;;16.71;100.00;98421.22;5083893;28;20032;-68
2022/08/28 03:08:28;;;;;;;23.40;13.45;;;;;;;16.74;100.00;98415.75;5083757;28;20085;-68
2022/08/28 03:10:53;;;;;;;24.67;15.13;;;;;;;16.80;100.00;98420.78;5083590;28;20033;-68
2022/08/28 03:13:19;;;;;;;21.77;13.13;;;;;;;16.80;100.00;98415.47;5083933;28;20328;-68
2022/08/28 03:15:45;;;;;;;26.10;14.02;;;;;;;16.83;100.00;98417.97;5084015;28;20061;-68
2022/08/28 03:18:11;;;;;;;21.27;14.75;;;;;;;16.91;100.00;98423.81;5083596;28;20269;-68
2022/08/28 03:20:38;;;;;;;18.90;13.38;;;;;;;16.94;100.00;98420.13;5084058;28;20092;-68
2022/08/28 03:25:47;;;;;;;22.65;14.10;;;;;;;16.90;100.00;98427.38;5083809;28;20059;-68
2022/08/28 03:28:12;;;;;;;24.40;13.18;;;;;;;16.90;100.00;98416.75;5083561;28;20028;-68
2022/08/28 03:30:38;;;;;;;23.55;13.45;;;;;;;16.90;100.00;98410.59;5083237;28;20032;-68
2022/08/28 03:33:04;;;;;;;19.42;13.43;;;;;;;16.90;100.00;98414.09;5083770;28;20095;-68
2022/08/28 03:35:30;;;;;;;22.52;13.07;;;;;;;16.87;100.00;98416.88;5083731;28;20031;-68
2022/08/28 03:37:55;;;;;;;22.52;12.77;;;;;;;16.85;100.00;98416.13;5083670;28;20020;-68
2022/08/28 03:40:20;;;;;;;22.75;13.07;;;;;;;16.88;100.00;98418.63;5083403;28;20027;-68
2022/08/28 03:42:46;;;;;;;21.15;12.95;;;;;;;16.91;100.00;98418.50;5083877;28;20020;-68
2022/08/28 03:45:12;;;;;;;21.73;11.30;;;;;;;16.92;100.00;98422.88;5083445;28;20036;-68
2022/08/28 03:47:40;;;;;;;18.55;12.85;;;;;;;16.93;100.00;98424.56;5083583;28;20020;-68
2022/08/28 03:50:07;;;;;;;17.40;12.10;;;;;;;16.94;100.00;98428.97;5083454;28;20032;-68
2022/08/28 03:52:32;;;;;;;19.30;13.23;;;;;;;16.92;100.00;98425.53;5083552;28;20025;-68
2022/08/28 03:54:58;;;;;;;17.95;11.80;;;;;;;16.87;100.00;98418.72;5083505;28;20027;-68
2022/08/28 03:57:24;;;;;;;18.65;13.25;;;;;;;16.85;100.00;98423.22;5083515;28;20032;-68
2022/08/28 03:59:51;;;;;;;18.98;12.52;;;;;;;16.77;100.00;98428.91;5086821;28;20058;-68
2022/08/28 04:02:19;;;;;;;18.13;11.27;;;;;;;16.80;100.00;98431.41;5087064;28;20032;-68
2022/08/28 04:04:48;;;;;;;21.70;13.68;;;;;;;16.71;100.00;98429.19;5087217;28;20028;-68
2022/08/28 04:07:15;;;;;;;22.77;12.57;;;;;;;16.72;100.00;98427.41;5087421;28;20021;-68
2022/08/28 04:09:40;;;;;;;14.95;10.80;;;;;;;16.77;100.00;98426.25;5086913;28;20040;-68
2022/08/28 04:12:07;;;;;;;19.00;12.23;;;;;;;16.81;100.00;98430.47;5086899;28;20025;-68
2022/08/28 04:14:33;;;;;;;18.77;11.07;;;;;;;16.88;100.00;98428.41;5083326;28;20046;-68
2022/08/28 04:16:59;;;;;;;22.08;11.73;;;;;;;16.91;100.00;98439.75;5086987;28;20020;-68
2022/08/28 04:19:25;;;;;;;16.70;10.85;;;;;;;16.98;100.00;98430.56;5086940;28;20315;-68
2022/08/28 04:21:51;;;;;;;16.92;10.90;;;;;;;16.97;100.00;98428.84;5087135;28;20044;-68
2022/08/28 04:24:16;;;;;;;16.48;10.88;;;;;;;17.03;100.00;98433.81;5086880;28;20024;-68
2022/08/28 04:26:42;;;;;;;20.27;10.98;;;;;;;16.99;100.00;98437.59;5086469;28;20028;-68
2022/08/28 04:29:07;;;;;;;23.27;10.98;;;;;;;17.05;100.00;98441.72;5086761;28;20032;-68
2022/08/28 04:31:34;;;;;;;16.27;10.32;;;;;;;17.04;99.86;98440.91;5086703;28;20020;-68
2022/08/28 04:34:07;;;;;;;20.77;10.88;;;;;;;17.02;99.80;98448.06;5069623;28;20246;-68
2022/08/28 04:36:33;;;;;;;22.30;11.60;;;;;;;17.03;100.00;98447.13;5066835;28;20308;-68
2022/08/28 04:38:58;;;;;;;19.70;12.20;;;;;;;17.02;100.00;98447.19;5066563;28;20027;-68
2022/08/28 04:41:24;;;;;;;15.50;10.10;;;;;;;17.10;100.00;98451.25;5066461;28;20029;-68
2022/08/28 04:43:51;;;;;;;15.63;10.77;;;;;;;17.10;99.31;98451.25;5066466;28;20021;-68
2022/08/28 04:46:17;;;;;;;18.15;10.95;;;;;;;17.06;99.24;98444.31;5084830;28;20123;-68
2022/08/28 04:48:43;;;;;;;17.02;10.00;;;;;;;17.06;99.13;98449.63;5086466;28;20355;-68
2022/08/28 04:51:11;;;;;;;18.10;9.82;;;;;;;17.07;99.19;98453.16;5086346;28;20074;-68
2022/08/28 04:53:37;;;;;;;20.88;11.13;;;;;;;17.06;98.95;98452.31;5086374;28;20056;-68
2022/08/28 04:56:09;;;;;;;18.90;10.00;;;;;;;17.03;99.08;98452.44;5086257;28;20319;-68
2022/08/28 04:58:35;;;;;;;17.02;9.65;;;;;;;17.03;99.21;98460.41;5085984;28;20321;-68
2022/08/28 05:01:06;;;;;;;19.23;9.20;;;;;;;17.04;99.32;98459.50;5086191;28;20039;-68
2022/08/28 05:03:31;;;;;;;15.88;9.32;;;;;;;17.04;99.35;98467.50;5086124;28;20192;-68
2022/08/28 05:05:57;;;;;;;13.43;8.85;;;;;;;17.17;99.20;98467.75;5086063;28;20028;-68
2022/08/28 05:08:26;;;;;;;19.63;9.93;;;;;;;17.28;98.70;98471.59;5085797;28;20028;-68
2022/08/28 05:10:53;;;;;;;23.15;9.48;;;;;;;17.31;97.76;98475.06;5085404;28;20024;-68
2022/08/28 05:13:20;;;;;;;17.42;9.50;;;;;;;17.42;97.34;98472.72;5085913;28;20382;-68
2022/08/28 05:15:48;;;;;;;16.75;8.45;;;;;;;17.47;96.80;98470.75;5085916;28;20045;-68
2022/08/28 05:18:15;;;;;;;16.52;9.75;;;;;;;17.44;96.93;98476.22;5085871;28;20024;-68
2022/08/28 05:20:46;;;;;;;12.75;7.90;;;;;;;17.40;97.00;98474.63;5085826;28;20062;-68
2022/08/28 05:23:13;;;;;;;11.25;7.75;;;;;;;17.44;96.67;98476.22;5085732;28;20254;-68
2022/08/28 05:25:44;;;;;;;16.27;8.23;;;;;;;17.42;96.89;98475.38;5085575;28;20095;-68
2022/08/28 05:28:10;;;;;;;14.63;8.50;;;;;;;17.46;96.70;98479.69;5085276;28;20066;-68
2022/08/28 05:30:38;;;;;;;11.27;7.72;;;;;;;17.55;96.21;98481.84;5085652;28;20036;-68
2022/08/28 05:33:04;;;;;;;16.98;7.60;;;;;;;17.63;95.87;98482.34;5085809;28;20020;-68
2022/08/28 05:35:36;;;;;;;11.18;7.32;;;;;;;17.74;95.49;98482.66;5084110;28;20042;-68
2022/08/28 05:38:02;;;;;;;15.15;7.50;;;;;;;17.87;95.06;98486.47;5071822;28;20024;-68
2022/08/28 05:40:27;;;;;;;12.77;7.43;;;;;;;17.90;93.71;98480.94;5085364;28;20059;-68
2022/08/28 05:42:52;;;;;;;18.95;7.43;;;;;;;17.97;92.70;98485.88;5085390;28;20083;-68
2022/08/28 05:45:18;;;;;;;12.73;6.80;;;;;;;18.05;92.47;98485.50;5085336;28;20082;-68
2022/08/28 05:47:44;;;;;;;11.07;6.88;;;;;;;18.28;92.04;98478.03;5085173;28;20020;-68
2022/08/28 05:50:12;;;;;;;14.32;6.35;;;;;;;18.41;90.42;98481.81;5084966;28;20025;-68
2022/08/28 05:52:38;;;;;;;11.50;6.93;;;;;;;18.70;88.95;98485.59;5084884;28;20139;-68
2022/08/28 05:55:05;;;;;;;14.27;6.22;;;;;;;18.80;87.99;98486.81;5085075;28;20020;-68
2022/08/28 05:57:30;;;;;;;11.32;5.45;;;;;;;18.88;87.24;98489.91;5085294;28;20016;-68
2022/08/28 05:59:56;;;;;;;12.57;6.93;;;;;;;18.96;87.26;98493.88;5084752;28;20074;-68
2022/08/28 06:02:21;;;;;;;16.45;5.32;;;;;;;18.95;87.17;98496.63;5084998;28;20020;-68
2022/08/28 06:04:47;;;;;;;15.75;6.13;;;;;;;19.23;86.54;98502.16;5084606;28;20099;-68
2022/08/28 06:07:14;;;;;;;11.02;5.78;;;;;;;19.13;85.42;98490.28;5084798;28;20096;-68
2022/08/28 06:09:40;;;;;;;12.23;5.68;;;;;;;19.16;85.14;98496.31;5084474;28;20036;-68
2022/08/28 06:12:05;;;;;;;11.90;5.72;;;;;;;19.11;85.61;98498.38;5084577;28;20028;-68
2022/08/28 06:14:31;;;;;;;12.60;5.78;;;;;;;19.15;85.86;98501.75;5084579;28;20031;-68
2022/08/28 06:16:58;;;;;;;17.88;5.90;;;;;;;19.12;85.24;98501.91;5084566;28;20039;-68
2022/08/28 06:19:27;;;;;;;8.98;5.43;;;;;;;19.17;85.75;98502.50;5084227;28;20311;-68
2022/08/28 06:21:58;;;;;;;9.98;5.20;;;;;;;19.21;85.65;98501.41;5083602;28;20024;-68
2022/08/28 06:24:26;;;;;;;10.18;5.90;;;;;;;19.36;85.17;98507.72;5076403;28;20035;-67
2022/08/28 06:26:52;;;;;;;10.45;5.50;;;;;;;19.28;84.32;98505.47;5084229;28;20087;-68
2022/08/28 06:29:18;;;;;;;10.27;5.95;;;;;;;19.49;84.44;98506.06;5083870;28;20040;-68
2022/08/28 06:31:44;;;;;;;12.48;5.22;;;;;;;19.95;81.82;98514.00;5083946;28;20031;-67
2022/08/28 06:34:10;;;;;;;13.23;6.40;;;;;;;20.68;79.79;98511.31;5083951;28;20028;-67
2022/08/28 06:36:39;;;;;;;11.77;5.25;;;;;;;21.42;75.08;98525.34;5084142;28;20051;-67
2022/08/28 06:39:05;;;;;;;14.27;5.28;;;;;;;21.33;74.44;98519.72;5083806;28;20093;-68
2022/08/28 06:41:31;;;;;;;9.43;5.10;;;;;;;21.29;75.17;98519.94;5084089;28;20020;-68
2022/08/28 06:43:58;;;;;;;11.00;4.65;;;;;;;21.24;75.32;98522.03;5084083;28;20016;-68
2022/08/28 06:46:23;;;;;;;13.10;5.47;;;;;;;22.22;71.29;98518.19;5083875;28;20050;-68
2022/08/28 06:48:49;;;;;;;10.50;4.85;;;;;;;22.63;70.28;98528.78;5082915;28;20030;-68
2022/08/28 06:51:16;;;;;;;10.15;4.57;;;;;;;23.56;67.61;98527.41;5083851;28;20320;-68
2022/08/28 06:53:43;;;;;;;17.00;4.50;;;;;;;23.91;65.28;98522.97;5083856;28;20324;-68
2022/08/28 06:56:13;;;;;;;6.75;4.07;;;;;;;24.50;62.84;98527.41;5083756;28;20024;-69
2022/08/28 06:58:41;;;;;;;8.65;4.40;;;;;;;23.24;65.85;98523.50;5075955;28;20089;-69
2022/08/28 07:01:12;;;;;;;12.98;4.88;;;;;;;22.36;68.86;98526.16;5083434;28;20020;-69
2022/08/28 07:03:39;;;;;;;12.02;4.82;;;;;;;22.33;69.96;98531.72;5083783;28;20031;-69
2022/08/28 07:06:07;;;;;;;8.48;5.00;;;;;;;21.82;71.16;98534.34;5083895;28;20254;-69
2022/08/28 07:08:34;;;;;;;9.70;4.57;;;;;;;22.12;70.67;98533.16;5081762;28;20040;-69
2022/08/28 07:11:08;;;;;;;10.23;5.45;;;;;;;21.98;70.52;98540.41;5082170;28;20020;-69
2022/08/28 07:13:33;;;;;;;9.23;4.82;;;;;;;22.28;70.84;98543.72;5077062;28;20047;-69
2022/08/28 07:15:59;;;;;;;9.52;4.70;;;;;;;22.48;69.76;98535.16;5072559;28;20016;-69
2022/08/28 07:18:24;;;;;;;9.07;4.95;;;;;;;22.19;70.59;98538.97;5082586;28;20339;-69
2022/08/28 07:20:57;;;;;;;13.68;5.57;;;;;;;22.11;70.89;98552.06;5082010;28;20324;-69
2022/08/28 07:23:23;;;;;;;13.10;5.20;;;;;;;21.86;70.08;98547.44;5082786;28;20039;-69
2022/08/28 07:25:49;;;;;;;9.85;4.70;;;;;;;21.80;71.69;98544.31;5082724;28;20118;-69
2022/08/28 07:28:15;;;;;;;10.00;5.00;;;;;;;22.18;70.45;98558.72;5076626;28;20047;-69
2022/08/28 07:30:41;;;;;;;9.63;5.07;;;;;;;22.37;69.03;98543.09;5077654;28;20017;-69
2022/08/28 07:33:06;;;;;;;11.93;5.13;;;;;;;23.16;67.14;98555.41;5084962;28;20059;-69
2022/08/28 07:35:32;;;;;;;12.68;5.03;;;;;;;24.24;63.43;98555.44;5086152;28;20044;-69
2022/08/28 07:37:57;;;;;;;11.18;4.88;;;;;;;23.98;63.36;98551.13;5086381;28;20040;-69
2022/08/28 07:40:22;;;;;;;12.60;4.55;;;;;;;23.29;65.15;98556.28;5086465;28;20043;-69
2022/08/28 07:45:34;;;;;;;12.65;4.65;;;;;;;22.36;67.87;98554.78;5086620;28;20039;-69
2022/08/28 07:48:02;;;;;;;11.70;5.18;;;;;;;22.40;67.30;98559.84;5087351;28;20304;-69
2022/08/28 07:50:28;;;;;;;10.75;4.47;;;;;;;22.14;68.92;98552.69;5087210;28;20023;-71
2022/08/28 07:52:53;;;;;;;14.45;5.07;;;;;;;22.16;69.34;98549.91;5087096;28;20017;-68
2022/08/28 07:55:19;;;;;;;10.75;5.03;;;;;;;22.15;69.60;98554.41;5087203;28;20043;-68
2022/08/28 07:57:44;;;;;;;11.88;4.88;;;;;;;22.23;69.14;98561.94;5087121;28;20020;-68
2022/08/28 08:00:11;;;;;;;10.82;4.93;;;;;;;22.15;69.38;98550.88;5086288;28;20088;-68
2022/08/28 08:02:37;;;;;;;11.07;4.93;;;;;;;22.16;69.99;98560.63;5087056;28;20021;-68
2022/08/28 08:05:04;;;;;;;13.18;5.00;;;;;;;22.16;69.28;98557.94;5086984;28;20036;-68
2022/08/28 08:07:29;;;;;;;12.52;4.60;;;;;;;22.20;69.19;98564.81;5087107;28;20285;-68
2022/08/28 08:09:54;;;;;;;13.10;4.15;;;;;;;21.98;69.67;98569.88;5086893;28;20032;-67
2022/08/28 08:12:20;;;;;;;11.57;4.88;;;;;;;21.98;69.11;98561.84;5087120;28;20028;-67
2022/08/28 08:14:47;;;;;;;10.27;4.45;;;;;;;22.31;68.70;98564.97;5086539;28;20043;-67
2022/08/28 08:17:13;;;;;;;9.68;4.47;;;;;;;22.62;68.17;98570.00;5086793;28;20382;-67
2022/08/28 08:19:39;;;;;;;13.25;4.78;;;;;;;22.97;66.28;98571.94;5086611;28;20032;-67
2022/08/28 08:22:05;;;;;;;12.68;4.72;;;;;;;22.80;65.80;98564.22;5086852;28;20078;-67
2022/08/28 08:24:30;;;;;;;13.95;4.65;;;;;;;23.00;66.22;98565.53;5086732;28;20031;-67
2022/08/28 08:27:01;;;;;;;11.32;5.00;;;;;;;23.18;66.00;98574.94;5086463;28;20046;-67
2022/08/28 08:29:30;;;;;;;8.77;5.10;;;;;;;23.88;64.07;98579.66;5086230;28;20032;-67
2022/08/28 08:32:01;;;;;;;16.17;5.68;;;;;;;25.82;58.69;98594.03;5086757;28;20032;-67
2022/08/28 08:34:27;;;;;;;13.25;5.00;;;;;;;26.66;55.56;98594.16;5086330;28;20197;-67
2022/08/28 08:36:53;;;;;;;14.50;4.50;;;;;;;26.36;55.05;98585.94;5086378;28;20035;-67
2022/08/28 08:39:18;;;;;;;17.55;5.35;;;;;;;25.85;56.13;98584.84;5086389;28;20043;-67
2022/08/28 08:41:50;;;;;;;12.48;5.10;;;;;;;25.97;55.87;98581.13;5086157;28;20056;-67
2022/08/28 08:44:24;;;;;;;24.38;4.95;;;;;;;26.06;56.10;98588.47;5085510;28;20024;-67
2022/08/28 08:47:02;;;;;;;16.17;4.97;;;;;;;26.33;55.89;98591.59;5083786;28;20024;-67
2022/08/28 08:49:33;;;;;;;13.10;4.90;;;;;;;25.84;57.12;98588.53;5085894;28;20048;-67
2022/08/28 08:52:06;;;;;;;14.67;5.20;;;;;;;26.26;54.37;98591.25;5078432;28;20035;-67
2022/08/28 08:54:31;;;;;;;13.88;5.20;;;;;;;25.80;55.82;98592.44;5086007;28;20035;-67
2022/08/28 08:57:01;;;;;;;12.60;4.95;;;;;;;25.08;58.55;98594.63;5085812;28;20028;-67
2022/08/28 08:59:30;;;;;;;9.77;4.93;;;;;;;25.93;56.87;98594.00;5084695;28;20025;-67
2022/08/28 09:02:05;;;;;;;16.23;4.75;;;;;;;27.49;53.42;98606.69;5085783;28;20026;-67
2022/08/28 09:04:45;;;;;;;11.77;4.70;;;;;;;28.24;51.66;98607.94;5085826;28;20250;-67
2022/08/28 09:07:19;;;;;;;13.35;4.72;;;;;;;27.92;52.68;98601.03;5085979;28;20350;-67
2022/08/28 09:09:53;;;;;;;9.15;4.88;;;;;;;28.35;51.27;98618.63;5085593;28;20032;-67
2022/08/28 09:12:23;;;;;;;11.32;4.93;;;;;;;27.66;52.84;98606.06;5085607;28;20099;-67
2022/08/28 09:15:13;;;;;;;10.93;5.53;;;;;;;27.47;53.58;98599.69;5085701;28;20020;-67
2022/08/28 09:17:51;;;;;;;11.32;5.05;;;;;;;25.83;56.31;98602.97;5085512;28;20028;-67
2022/08/28 09:20:21;;;;;;;10.93;4.85;;;;;;;26.39;55.43;98601.88;5085521;28;20043;-67
2022/08/28 09:22:47;;;;;;;11.90;4.72;;;;;;;26.06;56.25;98604.66;5085349;28;20062;-67
2022/08/28 09:25:44;;;;;;;9.98;4.50;;;;;;;26.14;55.69;98602.22;5085527;28;20035;-67
2022/08/28 09:28:36;;;;;;;12.57;5.63;;;;;;;26.46;55.51;98597.69;5085216;28;20028;-67
2022/08/28 09:31:15;;;;;;;8.95;4.70;;;;;;;26.16;55.58;98608.34;5085309;28;20067;-67
2022/08/28 09:33:46;;;;;;;11.75;4.95;;;;;;;26.72;54.63;98594.53;5077169;28;20036;-67
2022/08/28 09:36:27;;;;;;;10.18;4.75;;;;;;;26.74;54.81;98591.69;5085274;28;20328;-67
2022/08/28 09:39:13;;;;;;;13.45;5.07;;;;;;;27.21;53.27;98597.41;5085193;28;20091;-67
2022/08/28 09:44:30;;;;;;;11.25;4.57;;;;;;;26.84;53.64;98598.03;5084979;28;20046;-67
2022/08/28 09:46:55;;;;;;;12.90;5.38;;;;;;;26.41;55.24;98600.75;5084592;28;20024;-67
2022/08/28 09:49:24;;;;;;;10.85;5.13;;;;;;;26.43;55.31;98608.72;5078141;28;20027;-67
2022/08/28 09:51:50;;;;;;;13.25;5.45;;;;;;;26.62;54.88;98608.94;5085025;28;20066;-67
2022/08/28 09:54:38;;;;;;;11.45;5.10;;;;;;;26.84;53.84;98601.59;5076664;28;20024;-67
2022/08/28 09:57:03;;;;;;;12.43;5.25;;;;;;;27.65;52.05;98607.03;5084628;28;20024;-67
2022/08/28 09:59:29;;;;;;;14.98;5.25;;;;;;;27.87;50.94;98617.69;5084598;28;20373;-67
2022/08/28 10:02:09;;;;;;;11.32;5.30;;;;;;;27.78;51.45;98613.09;5084788;28;20084;-67
2022/08/28 10:04:46;;;;;;;12.07;5.18;;;;;;;28.44;49.47;98596.13;5084397;28;20016;-67
2022/08/28 10:07:17;;;;;;;13.18;5.50;;;;;;;27.97;49.85;98607.72;5084415;28;20222;-67
2022/08/28 10:10:19;;;;;;;10.27;4.90;;;;;;;29.23;48.29;98606.69;5084222;28;20358;-67
2022/08/28 10:12:50;;;;;;;11.75;4.85;;;;;;;28.02;48.16;98607.31;5084368;28;20024;-67
2022/08/28 10:15:28;;;;;;;23.33;5.70;;;;;;;28.58;49.05;98598.47;5084180;28;20029;-67
2022/08/28 10:18:27;;;;;;;14.80;5.80;;;;;;;27.85;50.04;98603.44;5084248;28;20048;-67
2022/08/28 10:21:01;;;;;;;12.30;5.55;;;;;;;28.05;50.04;98605.22;5084293;28;20413;-67
2022/08/28 10:23:57;;;;;;;12.77;5.68;;;;;;;28.28;49.35;98587.72;5084323;28;20100;-67
2022/08/28 10:26:41;;;;;;;13.68;5.65;;;;;;;27.85;49.37;98603.44;5084200;28;20092;-67
2022/08/28 10:29:37;;;;;;;13.05;5.13;;;;;;;26.90;52.11;98592.09;5084051;28;20375;-67
2022/08/28 10:32:32;;;;;;;13.43;5.72;;;;;;;27.66;51.24;98602.47;5084068;28;20028;-67
2022/08/28 10:35:08;;;;;;;12.60;5.00;;;;;;;28.42;49.55;98594.56;5084335;28;20349;-67
2022/08/28 10:37:46;;;;;;;16.25;5.80;;;;;;;28.32;49.65;98591.84;5082530;28;20031;-67
2022/08/28 10:40:25;;;;;;;12.88;5.40;;;;;;;26.40;51.49;98587.38;5084279;28;20311;-67
2022/08/28 10:42:59;;;;;;;14.50;5.80;;;;;;;27.17;52.04;98584.28;5083847;28;20115;-67
2022/08/28 10:45:27;;;;;;;18.40;5.50;;;;;;;28.29;48.96;98586.75;5084034;28;20032;-67
2022/08/28 10:47:59;;;;;;;14.32;5.63;;;;;;;27.61;50.37;98585.84;5083863;28;20031;-67
2022/08/28 10:50:41;;;;;;;9.93;6.20;;;;;;;27.90;49.74;98587.63;5083888;28;20113;-67
2022/08/28 10:53:14;;;;;;;16.05;6.63;;;;;;;28.13;49.81;98583.72;5083841;28;20024;-67
2022/08/28 10:55:58;;;;;;;11.48;5.50;;;;;;;27.38;50.19;98571.63;5070506;28;20025;-67
2022/08/28 10:58:26;;;;;;;11.80;6.00;;;;;;;27.40;51.84;98579.59;5081553;28;20024;-67
2022/08/28 11:01:12;;;;;;;13.50;6.07;;;;;;;27.92;50.01;98574.84;5075975;28;20024;-67
2022/08/28 11:03:43;;;;;;;10.85;5.20;;;;;;;27.59;51.13;98575.16;5083584;28;20110;-67
2022/08/28 11:06:25;;;;;;;14.45;5.68;;;;;;;28.39;49.63;98573.19;5083840;28;20091;-67
2022/08/28 11:08:55;;;;;;;18.40;5.85;;;;;;;28.11;49.56;98577.59;5073953;28;20082;-67
2022/08/28 11:11:39;;;;;;;13.23;5.82;;;;;;;28.40;48.51;98575.75;5082626;28;20114;-67
2022/08/28 11:14:04;;;;;;;14.07;6.38;;;;;;;28.63;48.59;98573.66;5082737;28;20088;-67
2022/08/28 11:16:30;;;;;;;12.35;5.53;;;;;;;28.08;49.37;98569.75;5082667;28;20220;-67
2022/08/28 11:19:29;;;;;;;11.70;5.65;;;;;;;28.48;49.44;98575.97;5082423;28;20031;-67
2022/08/28 11:22:03;;;;;;;12.10;5.65;;;;;;;28.66;49.04;98576.94;5082519;28;20020;-67
2022/08/28 11:24:44;;;;;;;11.07;5.13;;;;;;;29.42;47.23;98578.66;5081558;28;20031;-67
2022/08/28 11:27:16;;;;;;;13.63;5.88;;;;;;;29.15;47.43;98571.34;5082804;28;20032;-67
2022/08/28 11:29:57;;;;;;;11.30;6.07;;;;;;;28.73;47.64;98578.06;5082567;28;20088;-67
2022/08/28 11:32:50;;;;;;;11.32;5.68;;;;;;;28.95;48.55;98577.75;5082507;28;20025;-67
2022/08/28 11:35:42;;;;;;;13.27;6.07;;;;;;;28.85;48.21;98567.91;5081961;28;20033;-67
2022/08/28 11:38:09;;;;;;;9.23;5.32;;;;;;;28.25;48.98;98573.63;5082437;28;20040;-67
2022/08/28 11:40:35;;;;;;;14.25;6.68;;;;;;;27.36;50.49;98568.19;5082491;28;20061;-67